Time;durP1;ratioP1;P1;durP2;ratioP2;P2;SDS_P1;SDS_P2;PMS_P1;PMS_P2;Temp;Humidity;BMP_temperature;BMP_pressure;BME280_temperature;BME280_humidity;BME280_pressure;Samples;Min_cycle;Max_cycle;Signal;HPM_P1;HPM_P2
2023/09/03 00:01:35;;;;;;;9.32;2.38;;;;;;;;;;4879719;29;20049;-81
2023/09/03 00:04:05;;;;;;;6.22;2.42;;;;;;;;;;4884119;29;20064;-81
2023/09/03 00:06:38;;;;;;;8.52;2.45;;;;;;;;;;4900428;29;20060;-81
2023/09/03 00:09:13;;;;;;;5.53;2.20;;;;;;;;;;4885054;29;20053;-81
2023/09/03 00:11:47;;;;;;;4.07;1.70;;;;;;;;;;4900436;29;20053;-80
2023/09/03 00:14:17;;;;;;;7.60;1.70;;;;;;;;;;4900041;29;20055;-81
2023/09/03 00:16:52;;;;;;;3.70;1.42;;;;;;;;;;4900939;29;20064;-82
2023/09/03 00:19:25;;;;;;;5.13;1.73;;;;;;;;;;4899162;29;20044;-80
2023/09/03 00:21:58;;;;;;;6.88;2.03;;;;;;;;;;4899558;29;20424;-80
2023/09/03 00:24:33;;;;;;;6.50;2.08;;;;;;;;;;4883737;29;20052;-79
2023/09/03 00:27:05;;;;;;;7.72;2.25;;;;;;;;;;4898228;29;20044;-79
2023/09/03 00:29:40;;;;;;;4.70;1.73;;;;;;;;;;4883197;29;20056;-81
2023/09/03 00:32:14;;;;;;;4.63;1.90;;;;;;;;;;4898530;29;20051;-79
2023/09/03 00:34:45;;;;;;;3.17;1.63;;;;;;;;;;4868041;29;20048;-79
2023/09/03 00:37:20;;;;;;;9.70;2.58;;;;;;;;;;4841604;29;20053;-79
2023/09/03 00:39:56;;;;;;;5.03;2.60;;;;;;;;;;4850467;29;20046;-78
2023/09/03 00:42:27;;;;;;;6.93;2.40;;;;;;;;;;4844382;29;20038;-79
2023/09/03 00:44:56;;;;;;;5.63;2.20;;;;;;;;;;4858542;29;20405;-80
2023/09/03 00:47:39;;;;;;;10.98;3.30;;;;;;;;;;4860776;29;20045;-78
2023/09/03 00:50:13;;;;;;;8.05;2.78;;;;;;;;;;4865092;29;20057;-81
2023/09/03 00:52:50;;;;;;;5.03;2.58;;;;;;;;;;4865518;29;20064;-82
2023/09/03 00:55:23;;;;;;;5.13;2.40;;;;;;;;;;4851821;29;20046;-81
2023/09/03 00:57:59;;;;;;;5.20;2.65;;;;;;;;;;4845705;29;20057;-81
2023/09/03 01:00:57;;;;;;;12.68;3.20;;;;;;;;;;4844236;29;20054;-80
2023/09/03 01:03:35;;;;;;;7.57;2.80;;;;;;;;;;4840697;29;20046;-81
2023/09/03 01:06:06;;;;;;;5.47;2.75;;;;;;;;;;4827307;29;20046;-80
2023/09/03 01:08:41;;;;;;;6.97;2.97;;;;;;;;;;4841473;29;20054;-82
2023/09/03 01:11:31;;;;;;;7.40;2.60;;;;;;;;;;4840600;29;20057;-80
2023/09/03 01:14:33;;;;;;;6.70;2.97;;;;;;;;;;4849172;29;20056;-80
2023/09/03 01:17:19;;;;;;;5.85;3.15;;;;;;;;;;4897332;29;20051;-81
2023/09/03 01:19:59;;;;;;;8.20;3.28;;;;;;;;;;4881795;29;20068;-82
2023/09/03 01:23:04;;;;;;;7.15;4.28;;;;;;;;;;4896526;29;20055;-80
2023/09/03 01:26:12;;;;;;;8.48;3.83;;;;;;;;;;4896467;29;20063;-83
2023/09/03 01:28:43;;;;;;;8.57;4.18;;;;;;;;;;4897742;29;20045;-80
2023/09/03 01:31:20;;;;;;;10.57;3.53;;;;;;;;;;4897888;29;20040;-82
2023/09/03 01:34:01;;;;;;;9.85;3.80;;;;;;;;;;4896767;29;20048;-80
2023/09/03 01:36:40;;;;;;;10.07;3.65;;;;;;;;;;4897179;29;20048;-81
2023/09/03 01:39:16;;;;;;;6.82;3.63;;;;;;;;;;4881315;29;20060;-81
2023/09/03 01:41:47;;;;;;;8.63;3.33;;;;;;;;;;4881961;29;20051;-81
2023/09/03 01:44:18;;;;;;;8.68;3.08;;;;;;;;;;4898237;29;20051;-81
2023/09/03 01:47:21;;;;;;;7.03;2.92;;;;;;;;;;4897831;29;20048;-82
2023/09/03 01:50:01;;;;;;;7.75;2.80;;;;;;;;;;4897451;29;20040;-80
2023/09/03 01:52:54;;;;;;;4.68;2.42;;;;;;;;;;4897206;29;20056;-80
2023/09/03 01:55:28;;;;;;;13.45;2.72;;;;;;;;;;4898075;29;20056;-81
2023/09/03 01:58:07;;;;;;;6.15;2.50;;;;;;;;;;4881427;29;20064;-82
2023/09/03 02:00:41;;;;;;;8.98;2.78;;;;;;;;;;4897314;29;20057;-81
2023/09/03 02:03:18;;;;;;;7.13;2.67;;;;;;;;;;4882429;29;20404;-82
2023/09/03 02:05:56;;;;;;;11.80;2.50;;;;;;;;;;4865216;29;20385;-82
2023/09/03 02:08:30;;;;;;;9.45;2.92;;;;;;;;;;4863308;29;20045;-81
2023/09/03 02:11:01;;;;;;;4.97;2.47;;;;;;;;;;4886507;29;20055;-82
2023/09/03 02:13:35;;;;;;;8.80;2.35;;;;;;;;;;4864042;29;20052;-80
2023/09/03 02:16:07;;;;;;;8.80;2.67;;;;;;;;;;4895982;29;20041;-82
2023/09/03 02:18:38;;;;;;;6.65;2.20;;;;;;;;;;4881233;29;20117;-80
2023/09/03 02:21:08;;;;;;;7.85;2.08;;;;;;;;;;4896078;29;20060;-80
2023/09/03 02:23:43;;;;;;;5.18;2.20;;;;;;;;;;4865948;29;20416;-80
2023/09/03 02:26:18;;;;;;;16.02;2.28;;;;;;;;;;4895503;29;20052;-81
2023/09/03 02:28:50;;;;;;;9.40;2.33;;;;;;;;;;4865335;29;20048;-82
2023/09/03 02:31:20;;;;;;;8.85;2.30;;;;;;;;;;4880743;29;20044;-80
2023/09/03 02:33:52;;;;;;;5.00;1.75;;;;;;;;;;4886867;29;20051;-81
2023/09/03 02:36:24;;;;;;;8.57;2.03;;;;;;;;;;4886851;29;20045;-82
2023/09/03 02:39:03;;;;;;;8.35;2.30;;;;;;;;;;4881044;29;20063;-82
2023/09/03 02:41:35;;;;;;;6.65;2.22;;;;;;;;;;4895429;29;20373;-81
2023/09/03 02:44:09;;;;;;;4.90;2.30;;;;;;;;;;4880370;29;20476;-81
2023/09/03 02:46:42;;;;;;;5.97;2.10;;;;;;;;;;4897079;29;20043;-83
2023/09/03 02:49:14;;;;;;;6.38;2.05;;;;;;;;;;4894853;29;20514;-81
2023/09/03 02:51:45;;;;;;;8.50;2.30;;;;;;;;;;4879887;29;20067;-81
2023/09/03 02:54:19;;;;;;;10.10;2.55;;;;;;;;;;4877894;29;20052;-81
2023/09/03 02:56:54;;;;;;;6.88;2.17;;;;;;;;;;4895140;29;20049;-81
2023/09/03 02:59:25;;;;;;;8.05;2.38;;;;;;;;;;4880626;29;20052;-82
2023/09/03 03:01:55;;;;;;;4.70;2.08;;;;;;;;;;4880216;29;20420;-81
2023/09/03 03:04:30;;;;;;;7.75;2.28;;;;;;;;;;4896470;29;20401;-80
2023/09/03 03:07:01;;;;;;;8.55;2.15;;;;;;;;;;4902983;29;20108;-81
2023/09/03 03:09:35;;;;;;;10.15;2.42;;;;;;;;;;4886929;29;20377;-83
2023/09/03 03:12:05;;;;;;;7.68;2.50;;;;;;;;;;4894705;29;20060;-84
2023/09/03 03:14:40;;;;;;;8.07;2.88;;;;;;;;;;4902317;29;20056;-83
2023/09/03 03:17:12;;;;;;;11.10;3.63;;;;;;;;;;4896353;29;20067;-81
2023/09/03 03:19:50;;;;;;;7.55;2.28;;;;;;;;;;4886810;29;20052;-81
2023/09/03 03:22:20;;;;;;;5.30;2.45;;;;;;;;;;4903148;29;20060;-80
2023/09/03 03:24:51;;;;;;;5.88;2.20;;;;;;;;;;4902555;29;20048;-81
2023/09/03 03:27:26;;;;;;;10.52;2.17;;;;;;;;;;4892141;29;20052;-80
2023/09/03 03:29:58;;;;;;;7.60;2.33;;;;;;;;;;4893070;29;20041;-79
2023/09/03 03:32:28;;;;;;;7.72;2.28;;;;;;;;;;4893997;29;20049;-80
2023/09/03 03:35:03;;;;;;;9.07;2.40;;;;;;;;;;4902877;29;20044;-80
2023/09/03 03:37:34;;;;;;;8.02;2.17;;;;;;;;;;4902812;29;20514;-80
2023/09/03 03:40:06;;;;;;;9.88;2.47;;;;;;;;;;4900801;29;20040;-80
2023/09/03 03:42:39;;;;;;;16.83;2.85;;;;;;;;;;4902373;29;20047;-81
2023/09/03 03:45:10;;;;;;;5.53;2.40;;;;;;;;;;4892419;29;20048;-79
2023/09/03 03:47:41;;;;;;;4.63;2.25;;;;;;;;;;4900731;29;20047;-80
2023/09/03 03:50:11;;;;;;;5.38;2.20;;;;;;;;;;4908510;29;20507;-80
2023/09/03 03:52:41;;;;;;;4.35;2.08;;;;;;;;;;4900282;29;20036;-80
2023/09/03 03:55:12;;;;;;;4.68;1.92;;;;;;;;;;4907349;29;20053;-85
2023/09/03 03:57:48;;;;;;;10.15;2.30;;;;;;;;;;4886156;29;20052;-80
2023/09/03 04:00:19;;;;;;;6.82;2.17;;;;;;;;;;4873327;29;20048;-80
2023/09/03 04:02:49;;;;;;;6.43;2.10;;;;;;;;;;4878465;29;20049;-82
2023/09/03 04:05:19;;;;;;;6.05;2.33;;;;;;;;;;4902022;29;20044;-81
2023/09/03 04:07:49;;;;;;;7.10;2.00;;;;;;;;;;4903592;29;20380;-80
2023/09/03 04:10:22;;;;;;;7.13;1.90;;;;;;;;;;4886293;29;20069;-81
2023/09/03 04:12:56;;;;;;;8.27;2.33;;;;;;;;;;4885697;29;20056;-81
2023/09/03 04:15:26;;;;;;;6.28;2.15;;;;;;;;;;4903008;29;20033;-80
2023/09/03 04:17:56;;;;;;;6.10;2.05;;;;;;;;;;4885902;29;20048;-79
2023/09/03 04:20:27;;;;;;;5.13;2.60;;;;;;;;;;4904004;29;20048;-80
2023/09/03 04:23:01;;;;;;;11.50;2.42;;;;;;;;;;4903316;29;20445;-80
2023/09/03 04:25:34;;;;;;;6.28;1.90;;;;;;;;;;4887461;29;20051;-81
2023/09/03 04:28:05;;;;;;;5.88;2.03;;;;;;;;;;4918269;29;20059;-80
2023/09/03 04:30:38;;;;;;;5.13;2.38;;;;;;;;;;4917678;29;20064;-80
2023/09/03 04:33:11;;;;;;;6.47;2.60;;;;;;;;;;4902356;29;20071;-81
2023/09/03 04:35:44;;;;;;;7.63;2.38;;;;;;;;;;4914038;29;20044;-82
2023/09/03 04:38:15;;;;;;;7.28;2.20;;;;;;;;;;4914846;29;20043;-80
2023/09/03 04:40:45;;;;;;;15.20;4.65;;;;;;;;;;4900486;29;20053;-82
2023/09/03 04:43:19;;;;;;;10.68;2.83;;;;;;;;;;4883065;29;20055;-79
2023/09/03 04:45:53;;;;;;;10.88;2.10;;;;;;;;;;4899607;29;20059;-80
2023/09/03 04:48:28;;;;;;;5.30;2.10;;;;;;;;;;4900983;29;20044;-80
2023/09/03 04:51:06;;;;;;;9.18;2.10;;;;;;;;;;4900633;29;20044;-81
2023/09/03 04:53:38;;;;;;;7.65;2.25;;;;;;;;;;4883462;29;20052;-80
2023/09/03 04:56:14;;;;;;;5.68;1.95;;;;;;;;;;4883256;29;20064;-82
2023/09/03 04:58:46;;;;;;;6.70;2.22;;;;;;;;;;4883530;29;20484;-82
2023/09/03 05:01:17;;;;;;;6.13;2.60;;;;;;;;;;4867787;29;20519;-81
2023/09/03 05:03:52;;;;;;;5.18;1.80;;;;;;;;;;4883616;29;20056;-79
2023/09/03 05:06:25;;;;;;;4.90;1.73;;;;;;;;;;4883666;29;20070;-81
2023/09/03 05:08:59;;;;;;;9.63;2.30;;;;;;;;;;4883803;29;20048;-81
2023/09/03 05:11:29;;;;;;;8.18;2.25;;;;;;;;;;4901668;29;20077;-79
2023/09/03 05:13:59;;;;;;;5.40;1.92;;;;;;;;;;4899060;29;20072;-81
2023/09/03 05:16:31;;;;;;;7.15;2.10;;;;;;;;;;4883175;29;20491;-81
2023/09/03 05:19:07;;;;;;;7.40;1.90;;;;;;;;;;4882880;29;20052;-81
2023/09/03 05:21:37;;;;;;;7.05;1.80;;;;;;;;;;4900757;29;20044;-81
2023/09/03 05:24:10;;;;;;;15.00;2.35;;;;;;;;;;4883035;29;20060;-81
2023/09/03 05:26:41;;;;;;;10.85;2.03;;;;;;;;;;4883482;29;20055;-81
2023/09/03 05:29:14;;;;;;;9.80;2.33;;;;;;;;;;4868708;29;20391;-80
2023/09/03 05:31:45;;;;;;;9.10;2.22;;;;;;;;;;4883074;29;20053;-80
2023/09/03 05:34:17;;;;;;;;;;;;;;;;;;4883210;29;20055;-81
2023/09/03 05:36:48;;;;;;;8.25;2.05;;;;;;;;;;4882602;29;19919;-79
2023/09/03 05:39:18;;;;;;;6.93;2.10;;;;;;;;;;4867538;29;20055;-80
2023/09/03 05:41:49;;;;;;;7.18;2.53;;;;;;;;;;4900446;29;20040;-80
2023/09/03 05:44:21;;;;;;;12.23;2.75;;;;;;;;;;4899792;29;20412;-81
2023/09/03 05:46:51;;;;;;;6.97;2.38;;;;;;;;;;4897298;29;20052;-81
2023/09/03 05:49:27;;;;;;;5.47;2.50;;;;;;;;;;4882403;29;20386;-81
2023/09/03 05:51:59;;;;;;;6.30;2.40;;;;;;;;;;4883179;29;20071;-82
2023/09/03 05:54:31;;;;;;;9.25;3.13;;;;;;;;;;4899134;29;20072;-81
2023/09/03 05:57:01;;;;;;;8.35;2.78;;;;;;;;;;4898636;29;20056;-80
2023/09/03 05:59:34;;;;;;;10.65;3.08;;;;;;;;;;4866976;29;20147;-81
2023/09/03 06:02:05;;;;;;;9.63;3.58;;;;;;;;;;4899457;29;20048;-81
2023/09/03 06:04:36;;;;;;;7.32;2.63;;;;;;;;;;4906626;29;20045;-80
2023/09/03 06:07:09;;;;;;;8.45;3.08;;;;;;;;;;4899243;29;20056;-80
2023/09/03 06:09:41;;;;;;;10.40;3.78;;;;;;;;;;4914540;29;20052;-79
2023/09/03 06:12:14;;;;;;;8.75;3.05;;;;;;;;;;4918440;29;20048;-80
2023/09/03 06:14:48;;;;;;;7.68;2.92;;;;;;;;;;4909484;29;20038;-80
2023/09/03 06:17:18;;;;;;;6.90;3.28;;;;;;;;;;4912698;29;20047;-79
2023/09/03 06:19:49;;;;;;;14.70;3.60;;;;;;;;;;4870982;29;20052;-79
2023/09/03 06:22:19;;;;;;;7.63;3.92;;;;;;;;;;4880252;29;20049;-81
2023/09/03 06:24:51;;;;;;;9.43;3.55;;;;;;;;;;4864030;29;20500;-81
2023/09/03 06:27:21;;;;;;;10.25;3.42;;;;;;;;;;4863498;29;20049;-79
2023/09/03 06:29:53;;;;;;;11.48;3.47;;;;;;;;;;4880593;29;20036;-81
2023/09/03 06:32:24;;;;;;;7.65;3.78;;;;;;;;;;4863826;29;20060;-81
2023/09/03 06:34:54;;;;;;;6.75;3.08;;;;;;;;;;4863356;29;20134;-80
2023/09/03 06:37:24;;;;;;;8.95;3.15;;;;;;;;;;4880093;29;20045;-80
2023/09/03 06:39:56;;;;;;;6.50;3.20;;;;;;;;;;4864502;29;20398;-79
2023/09/03 06:42:29;;;;;;;13.48;3.35;;;;;;;;;;4880324;29;20044;-79
2023/09/03 06:45:02;;;;;;;10.32;4.68;;;;;;;;;;4862731;29;20053;-80
2023/09/03 06:47:32;;;;;;;7.57;3.28;;;;;;;;;;4862653;29;20045;-82
2023/09/03 06:50:02;;;;;;;6.30;2.72;;;;;;;;;;4862393;29;20421;-82
2023/09/03 06:52:33;;;;;;;6.63;2.78;;;;;;;;;;4862970;29;20385;-82
2023/09/03 06:55:04;;;;;;;10.45;3.45;;;;;;;;;;4879607;29;20056;-82
2023/09/03 06:57:35;;;;;;;8.23;2.80;;;;;;;;;;4879074;29;20049;-81
2023/09/03 07:00:07;;;;;;;7.63;2.45;;;;;;;;;;4879467;29;20053;-80
2023/09/03 07:02:38;;;;;;;6.63;2.72;;;;;;;;;;4879629;29;20365;-82
2023/09/03 07:05:14;;;;;;;10.40;3.10;;;;;;;;;;4879428;29;20045;-82
2023/09/03 07:07:46;;;;;;;9.63;3.67;;;;;;;;;;4863114;29;20049;-82
2023/09/03 07:10:17;;;;;;;6.40;2.30;;;;;;;;;;4880103;29;20506;-81
2023/09/03 07:12:47;;;;;;;8.68;3.17;;;;;;;;;;4879190;29;20061;-80
2023/09/03 07:15:17;;;;;;;7.22;2.92;;;;;;;;;;4863257;29;20051;-80
2023/09/03 07:17:51;;;;;;;6.85;2.53;;;;;;;;;;4847883;29;20488;-82
2023/09/03 07:20:22;;;;;;;9.73;2.58;;;;;;;;;;4862629;29;20060;-82
2023/09/03 07:22:52;;;;;;;9.57;2.70;;;;;;;;;;4879709;29;20051;-81
2023/09/03 07:25:22;;;;;;;7.50;2.25;;;;;;;;;;4879354;29;20068;-80
2023/09/03 07:27:53;;;;;;;4.60;2.40;;;;;;;;;;4862746;29;20056;-80
2023/09/03 07:30:25;;;;;;;8.68;2.72;;;;;;;;;;4879825;29;20041;-81
2023/09/03 07:32:56;;;;;;;10.52;2.60;;;;;;;;;;4861844;29;20041;-80
2023/09/03 07:35:31;;;;;;;9.55;2.80;;;;;;;;;;4877455;29;20045;-80
2023/09/03 07:38:04;;;;;;;8.90;2.85;;;;;;;;;;4863455;29;20354;-82
2023/09/03 07:40:39;;;;;;;8.18;2.63;;;;;;;;;;4879485;29;20041;-81
2023/09/03 07:43:14;;;;;;;;;;;;;;;;;;4879681;29;20045;-80
2023/09/03 07:45:45;;;;;;;9.52;3.35;;;;;;;;;;4879677;29;19919;-82
2023/09/03 07:48:16;;;;;;;7.32;2.95;;;;;;;;;;4879367;29;20056;-81
2023/09/03 07:50:49;;;;;;;10.50;3.10;;;;;;;;;;4863708;29;20448;-81
2023/09/03 07:53:21;;;;;;;12.73;3.40;;;;;;;;;;4861874;29;20457;-82
2023/09/03 07:55:54;;;;;;;6.90;3.22;;;;;;;;;;4878836;29;20037;-81
2023/09/03 07:58:25;;;;;;;9.40;3.70;;;;;;;;;;4863277;29;20052;-81
2023/09/03 08:01:00;;;;;;;6.28;3.35;;;;;;;;;;4863750;29;20049;-81
2023/09/03 08:03:35;;;;;;;7.82;3.25;;;;;;;;;;4879240;29;20041;-82
2023/09/03 08:06:09;;;;;;;11.02;3.13;;;;;;;;;;4879441;29;20048;-82
2023/09/03 08:08:39;;;;;;;7.97;3.22;;;;;;;;;;4879235;29;20387;-81
2023/09/03 08:11:10;;;;;;;7.30;3.13;;;;;;;;;;4865312;29;20049;-80
2023/09/03 08:13:40;;;;;;;8.98;3.10;;;;;;;;;;4865617;29;20068;-80
2023/09/03 08:16:10;;;;;;;10.43;3.03;;;;;;;;;;4863612;29;20057;-81
2023/09/03 08:18:44;;;;;;;9.60;3.70;;;;;;;;;;4881405;29;20045;-80
2023/09/03 08:21:14;;;;;;;19.65;4.22;;;;;;;;;;4881216;29;20366;-80
2023/09/03 08:23:50;;;;;;;6.95;3.55;;;;;;;;;;4864005;29;20045;-81
2023/09/03 08:26:21;;;;;;;9.77;3.55;;;;;;;;;;4881451;29;20049;-81
2023/09/03 08:28:51;;;;;;;12.23;3.85;;;;;;;;;;4864944;29;20053;-80
2023/09/03 08:31:25;;;;;;;9.88;3.00;;;;;;;;;;4881252;29;20052;-81
2023/09/03 08:33:56;;;;;;;10.93;3.28;;;;;;;;;;4881016;29;20496;-80
2023/09/03 08:36:28;;;;;;;8.10;2.95;;;;;;;;;;4879905;29;20397;-81
2023/09/03 08:39:00;;;;;;;6.10;3.17;;;;;;;;;;4895331;29;20052;-81
2023/09/03 08:41:35;;;;;;;9.10;3.00;;;;;;;;;;4894772;29;20060;-81
2023/09/03 08:44:22;;;;;;;7.30;3.30;;;;;;;;;;4894636;29;20041;-80
2023/09/03 08:47:03;;;;;;;8.60;3.28;;;;;;;;;;4881042;29;20052;-81
2023/09/03 08:49:35;;;;;;;5.22;2.90;;;;;;;;;;4895002;29;20048;-80
2023/09/03 08:52:08;;;;;;;8.98;2.97;;;;;;;;;;4877549;29;20049;-81
2023/09/03 08:54:39;;;;;;;9.68;3.35;;;;;;;;;;4880629;29;20481;-79
2023/09/03 08:57:10;;;;;;;8.60;3.33;;;;;;;;;;4880088;29;20492;-81
2023/09/03 08:59:39;;;;;;;9.77;4.30;;;;;;;;;;4880403;29;20041;-81
2023/09/03 09:02:15;;;;;;;7.32;3.58;;;;;;;;;;4880899;29;20092;-82
2023/09/03 09:04:49;;;;;;;11.48;4.88;;;;;;;;;;4881310;29;20045;-79
2023/09/03 09:07:22;;;;;;;10.85;4.80;;;;;;;;;;4880905;29;20045;-82
2023/09/03 09:09:58;;;;;;;15.63;6.80;;;;;;;;;;4864813;29;20060;-81
2023/09/03 09:13:04;;;;;;;13.52;5.78;;;;;;;;;;4766089;29;3830693;-80
2023/09/03 09:15:42;;;;;;;9.43;4.75;;;;;;;;;;4880952;29;20065;-81
2023/09/03 09:18:15;;;;;;;11.60;5.68;;;;;;;;;;4900463;29;20052;-79
2023/09/03 09:20:47;;;;;;;10.90;5.10;;;;;;;;;;4899239;29;20044;-80
2023/09/03 09:23:24;;;;;;;9.52;5.18;;;;;;;;;;4882636;29;20044;-79
2023/09/03 09:26:16;;;;;;;8.88;4.10;;;;;;;;;;4900157;29;20396;-79
2023/09/03 09:29:02;;;;;;;12.32;5.50;;;;;;;;;;4900482;29;20044;-81
2023/09/03 09:31:34;;;;;;;12.15;5.25;;;;;;;;;;4899974;29;20365;-81
2023/09/03 09:34:14;;;;;;;11.82;4.75;;;;;;;;;;4882024;29;20060;-82
2023/09/03 09:36:55;;;;;;;10.18;4.85;;;;;;;;;;4882469;29;20037;-81
2023/09/03 09:39:25;;;;;;;13.55;6.70;;;;;;;;;;4864858;29;20060;-80
2023/09/03 09:42:13;;;;;;;12.90;6.90;;;;;;;;;;4880240;29;20040;-81
2023/09/03 09:44:49;;;;;;;12.43;5.07;;;;;;;;;;4864808;29;20496;-81
2023/09/03 09:47:21;;;;;;;13.82;6.00;;;;;;;;;;4880937;29;20052;-80
2023/09/03 09:49:57;;;;;;;10.38;5.55;;;;;;;;;;4881038;29;20049;-80
2023/09/03 09:52:38;;;;;;;12.75;5.70;;;;;;;;;;4882271;29;20048;-79
2023/09/03 09:55:17;;;;;;;14.07;5.15;;;;;;;;;;4899273;29;20044;-79
2023/09/03 09:57:52;;;;;;;14.57;5.28;;;;;;;;;;4899840;29;20041;-82
2023/09/03 10:00:39;;;;;;;10.48;5.75;;;;;;;;;;4899065;29;20044;-80
2023/09/03 10:03:12;;;;;;;12.95;6.85;;;;;;;;;;4898288;29;20048;-80
2023/09/03 10:05:51;;;;;;;10.98;5.68;;;;;;;;;;4899641;29;20044;-80
2023/09/03 10:08:23;;;;;;;13.98;6.10;;;;;;;;;;4898862;29;20045;-81
2023/09/03 10:10:55;;;;;;;10.20;5.57;;;;;;;;;;4899499;29;20056;-79
2023/09/03 10:13:26;;;;;;;12.15;6.03;;;;;;;;;;4893842;29;20041;-81
2023/09/03 10:15:58;;;;;;;13.50;5.72;;;;;;;;;;4880374;29;20048;-80
2023/09/03 10:18:40;;;;;;;14.02;6.07;;;;;;;;;;4877536;29;20056;-80
2023/09/03 10:21:19;;;;;;;9.88;5.32;;;;;;;;;;4880501;29;20361;-81
2023/09/03 10:24:13;;;;;;;11.18;5.55;;;;;;;;;;4880329;29;20040;-79
2023/09/03 10:26:52;;;;;;;12.85;6.18;;;;;;;;;;4896093;29;20519;-81
2023/09/03 10:29:30;;;;;;;12.52;5.57;;;;;;;;;;4897865;29;20052;-81
2023/09/03 10:32:05;;;;;;;9.60;5.35;;;;;;;;;;4870159;29;20041;-81
2023/09/03 10:34:37;;;;;;;8.75;5.07;;;;;;;;;;4877629;29;20045;-81
2023/09/03 10:37:13;;;;;;;9.77;5.10;;;;;;;;;;4878616;29;20052;-81
2023/09/03 10:39:46;;;;;;;9.80;5.30;;;;;;;;;;4878798;29;20045;-81
2023/09/03 10:42:40;;;;;;;8.25;4.68;;;;;;;;;;4861964;29;20049;-82
2023/09/03 10:45:15;;;;;;;9.23;5.35;;;;;;;;;;4878974;29;20052;-84
2023/09/03 10:48:03;;;;;;;12.00;4.45;;;;;;;;;;4882329;29;20083;-81
2023/09/03 10:50:46;;;;;;;11.18;4.30;;;;;;;;;;4896704;29;20041;-81
2023/09/03 10:53:41;;;;;;;11.95;4.75;;;;;;;;;;4897545;29;20049;-82
2023/09/03 10:56:19;;;;;;;9.45;4.65;;;;;;;;;;4880174;29;20053;-84
2023/09/03 10:58:58;;;;;;;13.32;4.57;;;;;;;;;;4898014;29;20040;-83
2023/09/03 11:01:33;;;;;;;9.30;5.03;;;;;;;;;;4880153;29;20385;-81
2023/09/03 11:04:06;;;;;;;8.95;5.15;;;;;;;;;;4897203;29;20045;-82
2023/09/03 11:06:39;;;;;;;10.18;4.93;;;;;;;;;;4889215;29;20036;-82
2023/09/03 11:09:10;;;;;;;8.07;4.70;;;;;;;;;;4877330;29;20052;-82
2023/09/03 11:11:44;;;;;;;9.20;4.90;;;;;;;;;;4880089;29;20056;-86
2023/09/03 11:14:15;;;;;;;10.15;4.53;;;;;;;;;;4897753;29;20070;-82
2023/09/03 11:16:45;;;;;;;9.18;4.63;;;;;;;;;;4884655;29;20049;-83
2023/09/03 11:19:19;;;;;;;10.20;4.60;;;;;;;;;;4894655;29;20056;-81
2023/09/03 11:21:53;;;;;;;9.43;4.05;;;;;;;;;;4896072;29;20484;-84
2023/09/03 11:24:24;;;;;;;8.13;4.20;;;;;;;;;;4878119;29;20043;-83
2023/09/03 11:27:05;;;;;;;8.45;4.97;;;;;;;;;;4894888;29;20425;-82
2023/09/03 11:29:36;;;;;;;8.23;4.10;;;;;;;;;;4879724;29;20051;-82
2023/09/03 11:32:11;;;;;;;9.43;4.65;;;;;;;;;;4866836;29;20044;-83
2023/09/03 11:34:41;;;;;;;9.02;4.32;;;;;;;;;;4918436;29;20033;-82
2023/09/03 11:37:13;;;;;;;9.07;4.78;;;;;;;;;;4919347;29;20028;-82
2023/09/03 11:39:50;;;;;;;7.90;4.50;;;;;;;;;;4902636;29;20037;-82
2023/09/03 11:42:24;;;;;;;9.10;4.40;;;;;;;;;;4903186;29;20028;-84
2023/09/03 11:44:56;;;;;;;13.30;4.30;;;;;;;;;;4922724;29;20038;-83
2023/09/03 11:47:26;;;;;;;7.18;4.75;;;;;;;;;;4908388;29;20036;-83
2023/09/03 11:50:12;;;;;;;11.00;4.70;;;;;;;;;;4907681;29;20028;-83
2023/09/03 11:52:56;;;;;;;11.73;4.72;;;;;;;;;;4899388;29;20044;-81
2023/09/03 11:55:30;;;;;;;11.27;4.60;;;;;;;;;;4900786;29;20045;-80
2023/09/03 11:58:07;;;;;;;7.82;4.30;;;;;;;;;;4900197;29;20045;-81
2023/09/03 12:00:39;;;;;;;8.65;4.65;;;;;;;;;;4900581;29;20055;-81
2023/09/03 12:03:11;;;;;;;9.38;4.65;;;;;;;;;;4882800;29;20110;-81
2023/09/03 12:05:44;;;;;;;8.88;4.47;;;;;;;;;;4900333;29;20040;-85
2023/09/03 12:08:14;;;;;;;8.18;4.55;;;;;;;;;;4900189;29;20068;-82
2023/09/03 12:10:51;;;;;;;8.25;4.18;;;;;;;;;;4900281;29;20048;-81
2023/09/03 12:13:35;;;;;;;9.25;4.50;;;;;;;;;;4883530;29;20071;-81
2023/09/03 12:16:13;;;;;;;10.90;4.38;;;;;;;;;;4881659;29;20061;-84
2023/09/03 12:19:01;;;;;;;8.90;4.40;;;;;;;;;;4881673;29;20049;-83
2023/09/03 12:21:36;;;;;;;8.52;4.25;;;;;;;;;;4895261;29;20036;-81
2023/09/03 12:24:09;;;;;;;7.43;4.38;;;;;;;;;;4900226;29;20056;-83
2023/09/03 12:26:39;;;;;;;7.93;4.30;;;;;;;;;;4900469;29;20044;-82
2023/09/03 12:29:20;;;;;;;7.85;5.38;;;;;;;;;;4900027;29;20060;-81
2023/09/03 12:31:58;;;;;;;9.75;4.30;;;;;;;;;;4897586;29;20045;-79
2023/09/03 12:34:36;;;;;;;7.10;4.10;;;;;;;;;;4899735;29;20052;-82
2023/09/03 12:37:08;;;;;;;8.35;3.67;;;;;;;;;;4899124;29;20369;-82
2023/09/03 12:39:42;;;;;;;6.90;4.25;;;;;;;;;;4898924;29;20047;-81
2023/09/03 12:42:12;;;;;;;7.15;4.03;;;;;;;;;;4898853;29;20048;-83
2023/09/03 12:44:43;;;;;;;9.93;4.03;;;;;;;;;;4900087;29;20044;-82
2023/09/03 12:47:17;;;;;;;7.22;4.00;;;;;;;;;;4897361;29;20053;-80
2023/09/03 12:49:51;;;;;;;8.55;4.05;;;;;;;;;;4899925;29;20391;-81
2023/09/03 12:52:21;;;;;;;7.40;4.30;;;;;;;;;;4898472;29;20045;-80
2023/09/03 12:54:52;;;;;;;8.30;4.03;;;;;;;;;;4898808;29;20051;-81
2023/09/03 12:57:23;;;;;;;6.82;4.00;;;;;;;;;;4898836;29;20055;-79
2023/09/03 13:00:00;;;;;;;6.38;3.78;;;;;;;;;;4883821;29;20048;-84
2023/09/03 13:02:30;;;;;;;8.45;4.20;;;;;;;;;;4882894;29;20488;-81
2023/09/03 13:05:00;;;;;;;9.00;4.22;;;;;;;;;;4900353;29;20048;-84
2023/09/03 13:07:32;;;;;;;8.85;4.00;;;;;;;;;;4900634;29;20071;-82
2023/09/03 13:10:02;;;;;;;8.95;3.28;;;;;;;;;;4900406;29;20464;-81
2023/09/03 13:12:33;;;;;;;6.95;3.80;;;;;;;;;;4900815;29;20060;-77
2023/09/03 13:15:07;;;;;;;7.60;3.85;;;;;;;;;;4900515;29;20472;-79
2023/09/03 13:17:38;;;;;;;9.00;4.00;;;;;;;;;;4900670;29;20388;-82
2023/09/03 13:20:10;;;;;;;10.50;4.13;;;;;;;;;;4900463;29;20044;-80
2023/09/03 13:22:42;;;;;;;6.32;3.30;;;;;;;;;;4900078;29;20384;-81
2023/09/03 13:25:14;;;;;;;6.80;3.83;;;;;;;;;;4882891;29;20044;-80
2023/09/03 13:28:04;;;;;;;9.10;3.88;;;;;;;;;;4899842;29;20053;-80
2023/09/03 13:30:36;;;;;;;10.38;4.28;;;;;;;;;;4900311;29;20052;-79
2023/09/03 13:33:22;;;;;;;7.47;4.53;;;;;;;;;;4898813;29;20045;-80
2023/09/03 13:35:57;;;;;;;9.05;4.13;;;;;;;;;;4900189;29;20531;-80
2023/09/03 13:38:27;;;;;;;10.38;3.72;;;;;;;;;;4899993;29;20384;-80
2023/09/03 13:40:59;;;;;;;8.35;3.88;;;;;;;;;;4882786;29;20045;-81
2023/09/03 13:43:35;;;;;;;9.15;4.10;;;;;;;;;;4880277;29;20053;-80
2023/09/03 13:46:07;;;;;;;18.38;14.25;;;;;;;;;;4882980;29;20049;-82
2023/09/03 13:48:37;;;;;;;6.22;3.70;;;;;;;;;;4879741;29;20052;-82
2023/09/03 13:51:12;;;;;;;7.10;3.95;;;;;;;;;;4879554;29;20392;-80
2023/09/03 13:53:47;;;;;;;7.80;3.85;;;;;;;;;;4881257;29;20057;-83
2023/09/03 13:56:19;;;;;;;8.13;3.70;;;;;;;;;;4879761;29;20508;-82
2023/09/03 13:58:49;;;;;;;8.35;4.18;;;;;;;;;;4880564;29;20045;-84
2023/09/03 14:01:23;;;;;;;15.35;8.48;;;;;;;;;;4848542;29;20053;-81
2023/09/03 14:03:55;;;;;;;11.70;4.75;;;;;;;;;;4880748;29;20049;-79
2023/09/03 14:06:27;;;;;;;8.00;3.95;;;;;;;;;;4880269;29;20045;-81
2023/09/03 14:08:57;;;;;;;11.23;4.00;;;;;;;;;;4879337;29;20045;-79
2023/09/03 14:11:29;;;;;;;15.27;7.07;;;;;;;;;;4880815;29;20049;-81
2023/09/03 14:14:06;;;;;;;11.27;4.25;;;;;;;;;;4863997;29;20065;-81
2023/09/03 14:16:37;;;;;;;7.00;3.90;;;;;;;;;;4878545;29;20045;-79
2023/09/03 14:19:09;;;;;;;8.57;4.20;;;;;;;;;;4880438;29;20056;-81
2023/09/03 14:21:41;;;;;;;7.35;3.80;;;;;;;;;;4880648;29;20037;-81
2023/09/03 14:24:12;;;;;;;;;;;;;;;;;;4863496;29;20049;-81
2023/09/03 14:26:47;;;;;;;7.20;3.70;;;;;;;;;;4879416;29;19920;-83
2023/09/03 14:29:18;;;;;;;7.43;3.72;;;;;;;;;;4878901;29;20507;-81
2023/09/03 14:31:52;;;;;;;35.78;16.88;;;;;;;;;;4880651;29;20053;-82
2023/09/03 14:34:23;;;;;;;64.32;29.50;;;;;;;;;;4878445;29;20055;-82
2023/09/03 14:36:56;;;;;;;91.18;70.50;;;;;;;;;;4880552;29;20049;-83
2023/09/03 14:39:28;;;;;;;18.95;13.50;;;;;;;;;;4879840;29;20065;-82
2023/09/03 14:42:04;;;;;;;56.83;22.13;;;;;;;;;;4878731;29;20338;-82
2023/09/03 14:44:34;;;;;;;37.42;21.85;;;;;;;;;;4880045;29;20393;-81
2023/09/03 14:47:05;;;;;;;24.75;15.70;;;;;;;;;;4879607;29;20052;-82
2023/09/03 14:49:40;;;;;;;11.20;5.53;;;;;;;;;;4877820;29;20053;-82
2023/09/03 14:52:15;;;;;;;12.73;6.35;;;;;;;;;;4879996;29;20041;-82
2023/09/03 14:54:46;;;;;;;8.85;4.57;;;;;;;;;;4863814;29;20049;-82
2023/09/03 14:57:16;;;;;;;9.82;3.97;;;;;;;;;;4889930;29;20045;-84
2023/09/03 14:59:47;;;;;;;9.10;4.88;;;;;;;;;;4898122;29;20059;-81
2023/09/03 15:02:19;;;;;;;8.50;5.50;;;;;;;;;;4881591;29;20045;-82
2023/09/03 15:04:50;;;;;;;7.28;4.20;;;;;;;;;;4896922;29;20045;-80
2023/09/03 15:07:22;;;;;;;7.57;4.75;;;;;;;;;;4897623;29;20064;-81
2023/09/03 15:09:55;;;;;;;10.13;5.22;;;;;;;;;;4897194;29;20052;-82
2023/09/03 15:12:30;;;;;;;7.93;4.60;;;;;;;;;;4884306;29;20056;-83
2023/09/03 15:15:07;;;;;;;8.50;4.55;;;;;;;;;;4878438;29;20064;-84
2023/09/03 15:17:37;;;;;;;7.72;4.22;;;;;;;;;;4878446;29;20504;-80
2023/09/03 15:20:08;;;;;;;7.35;4.25;;;;;;;;;;4878370;29;20059;-81
2023/09/03 15:22:43;;;;;;;10.68;4.50;;;;;;;;;;4879473;29;20465;-82